createdAt,value
2022-10-01T00:02:10.718Z,-2.08
2022-10-01T00:04:40.475Z,-2.13
2022-10-01T00:07:15.575Z,-2.04
2022-10-01T00:09:44.460Z,-1.98
2022-10-01T00:12:16.506Z,-1.94
2022-10-01T00:14:45.773Z,-1.90
2022-10-01T00:17:14.516Z,-1.89
2022-10-01T00:19:43.360Z,-1.82
2022-10-01T00:22:12.061Z,-1.78
2022-10-01T00:24:41.352Z,-1.74
2022-10-01T00:27:11.351Z,-1.67
2022-10-01T00:29:41.705Z,-1.62
2022-10-01T00:32:10.572Z,-1.58
2022-10-01T00:34:39.352Z,-1.52
2022-10-01T00:37:10.316Z,-1.46
2022-10-01T00:39:39.201Z,-1.40
2022-10-01T00:42:19.858Z,-1.34
2022-10-01T00:44:49.848Z,-1.28
2022-10-01T00:47:28.981Z,-1.27
2022-10-01T00:50:07.607Z,-1.22
2022-10-01T00:52:41.371Z,-1.25
2022-10-01T00:55:18.847Z,-1.16
2022-10-01T00:57:47.897Z,-1.13
2022-10-01T01:00:17.789Z,-1.12
2022-10-01T01:02:46.990Z,-1.07
2022-10-01T01:05:15.902Z,-1.05
2022-10-01T01:07:47.892Z,-1.08
2022-10-01T01:10:20.454Z,-1.02
2022-10-01T01:13:22.572Z,-1.01
2022-10-01T01:16:11.723Z,-0.93
2022-10-01T01:18:46.579Z,-0.89
2022-10-01T01:21:35.900Z,-0.86
2022-10-01T01:24:11.599Z,-0.79
2022-10-01T01:27:02.733Z,-0.72
2022-10-01T01:30:04.826Z,-0.68
2022-10-01T01:33:05.281Z,-0.65
2022-10-01T01:35:38.897Z,-0.75
2022-10-01T01:38:15.496Z,-0.63
2022-10-01T01:40:47.691Z,-0.64
2022-10-01T01:43:21.470Z,-0.69
2022-10-01T01:45:55.627Z,-0.60
2022-10-01T01:48:25.295Z,-0.63
2022-10-01T01:51:09.663Z,-0.59
2022-10-01T01:53:39.001Z,-0.54
2022-10-01T01:56:08.750Z,-0.43
2022-10-01T01:58:39.358Z,-0.34
2022-10-01T02:01:09.774Z,-0.29
2022-10-01T02:03:38.715Z,-0.20
2022-10-01T02:06:21.817Z,-0.08
2022-10-01T02:09:02.763Z,-0.02
2022-10-01T02:11:42.247Z,-0.01
2022-10-01T02:14:14.060Z,0.08
2022-10-01T02:17:12.716Z,0.12
2022-10-01T02:19:47.753Z,0.11
2022-10-01T02:22:31.509Z,0.11
2022-10-01T02:25:04.898Z,0.19
2022-10-01T02:27:45.797Z,0.21
2022-10-01T02:30:15.893Z,0.16
2022-10-01T02:32:47.178Z,0.09
2022-10-01T02:35:18.599Z,0.13
2022-10-01T02:37:51.863Z,0.13
2022-10-01T02:40:26.776Z,0.08
2022-10-01T02:43:02.392Z,0.04
2022-10-01T02:45:37.398Z,0.07
2022-10-01T02:48:11.774Z,0.12
2022-10-01T02:50:52.436Z,0.25
2022-10-01T02:53:31.107Z,0.31
2022-10-01T02:56:02.918Z,0.30
2022-10-01T02:58:31.948Z,0.22
2022-10-01T03:01:01.245Z,0.21
2022-10-01T03:03:32.257Z,0.17
2022-10-01T03:06:01.073Z,0.24
2022-10-01T03:08:29.982Z,0.25
2022-10-01T03:10:58.842Z,0.40
2022-10-01T03:13:27.995Z,0.53
2022-10-01T03:15:56.783Z,0.60
2022-10-01T03:18:25.618Z,0.59
2022-10-01T03:20:54.521Z,0.55
2022-10-01T03:23:23.306Z,0.58
2022-10-01T03:25:52.086Z,0.64
2022-10-01T03:28:20.923Z,0.74
2022-10-01T03:30:49.695Z,0.79
2022-10-01T03:33:18.467Z,0.75
2022-10-01T03:35:47.272Z,0.82
2022-10-01T03:38:16.059Z,0.81
2022-10-01T03:40:44.891Z,0.89
2022-10-01T03:43:13.668Z,0.82
2022-10-01T03:45:42.453Z,0.77
2022-10-01T03:48:11.237Z,0.67
2022-10-01T03:50:40.198Z,0.74
2022-10-01T03:53:09.282Z,0.96
2022-10-01T03:55:38.208Z,1.10
2022-10-01T03:58:07.623Z,1.17
2022-10-01T04:00:36.722Z,1.38
2022-10-01T04:03:07.289Z,1.73
2022-10-01T04:05:36.113Z,2.06
2022-10-01T04:08:07.341Z,2.08
2022-10-01T04:10:36.467Z,2.02
2022-10-01T04:13:05.981Z,1.97
2022-10-01T04:15:35.240Z,2.05
2022-10-01T04:18:06.131Z,2.22
2022-10-01T04:20:37.927Z,2.15
2022-10-01T04:23:06.808Z,2.02
2022-10-01T04:25:35.609Z,2.21
2022-10-01T04:28:07.225Z,2.35
2022-10-01T04:30:39.292Z,2.27
2022-10-01T04:33:09.816Z,2.35
2022-10-01T04:35:39.318Z,2.59
2022-10-01T04:38:12.993Z,2.69
2022-10-01T04:40:42.179Z,2.91
2022-10-01T04:43:13.837Z,3.25
2022-10-01T04:45:42.638Z,3.77
2022-10-01T04:48:11.389Z,4.38
2022-10-01T04:50:40.294Z,4.63
2022-10-01T04:53:09.192Z,4.75
2022-10-01T04:55:38.382Z,4.40
2022-10-01T04:58:07.191Z,3.95
2022-10-01T05:00:36.618Z,3.65
2022-10-01T05:03:05.472Z,3.78
2022-10-01T05:05:35.586Z,4.46
2022-10-01T05:08:04.483Z,5.24
2022-10-01T05:10:33.343Z,6.30
2022-10-01T05:13:02.926Z,6.72
2022-10-01T05:15:31.966Z,7.16
2022-10-01T05:18:00.789Z,7.54
2022-10-01T05:20:30.169Z,7.72
2022-10-01T05:22:59.078Z,7.34
2022-10-01T05:25:27.821Z,6.48
2022-10-01T05:28:06.119Z,6.10
2022-10-01T05:30:36.009Z,6.01
2022-10-01T05:33:05.769Z,5.73
2022-10-01T05:35:34.608Z,4.99
2022-10-01T05:38:04.395Z,4.44
2022-10-01T05:40:33.805Z,4.12
2022-10-01T05:43:04.885Z,3.88
2022-10-01T05:45:34.359Z,4.51
2022-10-01T05:48:05.652Z,4.94
2022-10-01T05:50:36.809Z,5.21
2022-10-01T05:53:07.088Z,5.47
2022-10-01T05:55:36.442Z,6.07
2022-10-01T05:58:07.834Z,6.22
2022-10-01T06:00:38.924Z,6.05
2022-10-01T06:03:08.899Z,5.62
2022-10-01T06:05:38.408Z,5.00
2022-10-01T06:08:10.261Z,5.02
2022-10-01T06:10:39.759Z,5.48
2022-10-01T06:13:08.884Z,5.98
2022-10-01T06:15:39.622Z,6.46
2022-10-01T06:18:11.045Z,6.69
2022-10-01T06:20:41.632Z,6.46
2022-10-01T06:23:12.918Z,6.16
2022-10-01T06:25:44.042Z,5.87
2022-10-01T06:28:15.082Z,5.72
2022-10-01T06:30:44.586Z,5.44
2022-10-01T06:33:16.137Z,4.99
2022-10-01T06:35:52.763Z,4.11
2022-10-01T06:38:24.056Z,3.39
2022-10-01T06:40:54.963Z,2.88
2022-10-01T06:43:25.637Z,2.51
2022-10-01T06:45:54.481Z,2.29
2022-10-01T06:48:23.523Z,2.30
2022-10-01T06:50:55.501Z,2.36
2022-10-01T06:53:24.336Z,2.33
2022-10-01T06:55:53.194Z,2.18
2022-10-01T06:58:26.823Z,2.06
2022-10-01T07:01:02.179Z,1.94
2022-10-01T07:03:31.716Z,2.06
2022-10-01T07:06:05.443Z,2.31
2022-10-01T07:08:34.367Z,2.35
2022-10-01T07:11:04.226Z,2.27
2022-10-01T07:13:33.071Z,2.25
2022-10-01T07:16:04.926Z,2.29
2022-10-01T07:18:33.989Z,2.26
2022-10-01T07:21:02.856Z,2.27
2022-10-01T07:23:31.718Z,2.15
2022-10-01T07:26:00.709Z,1.98
2022-10-01T07:28:29.627Z,1.90
2022-10-01T07:31:02.269Z,1.73
2022-10-01T07:33:31.293Z,1.51
2022-10-01T07:36:05.977Z,1.39
2022-10-01T07:38:35.615Z,1.37
2022-10-01T07:41:05.293Z,1.38
2022-10-01T07:43:35.264Z,1.23
2022-10-01T07:46:05.697Z,1.11
2022-10-01T07:48:34.685Z,1.08
2022-10-01T07:51:03.467Z,1.09
2022-10-01T07:53:32.339Z,1.02
2022-10-01T07:56:04.545Z,0.93
2022-10-01T07:58:33.315Z,0.72
2022-10-01T08:01:05.828Z,0.58
2022-10-01T08:03:34.747Z,0.42
2022-10-01T08:06:10.118Z,0.34
2022-10-01T08:08:38.908Z,0.26
2022-10-01T08:11:09.839Z,0.26
2022-10-01T08:13:38.839Z,0.30
2022-10-01T08:16:10.283Z,0.30
2022-10-01T08:18:41.231Z,0.32
2022-10-01T08:21:10.482Z,0.45
2022-10-01T08:23:39.323Z,0.55
2022-10-01T08:26:09.327Z,0.60
2022-10-01T08:28:38.077Z,0.62
2022-10-01T08:31:08.157Z,0.64
2022-10-01T08:33:39.062Z,0.66
2022-10-01T08:36:11.000Z,0.69
2022-10-01T08:38:40.826Z,0.61
2022-10-01T08:41:44.318Z,0.58
2022-10-01T08:44:28.516Z,0.52
2022-10-01T08:47:04.761Z,0.33
2022-10-01T08:49:41.612Z,0.29
2022-10-01T08:52:31.837Z,0.27
2022-10-01T08:55:00.584Z,0.15
2022-10-01T08:57:54.222Z,0.03
2022-10-01T09:00:23.913Z,-0.02
2022-10-01T09:02:53.495Z,0.04
2022-10-01T09:05:40.479Z,-0.02
2022-10-01T09:08:46.095Z,-0.08
2022-10-01T09:11:39.306Z,-0.22
2022-10-01T09:14:14.857Z,-0.30
2022-10-01T09:17:11.403Z,-0.38
2022-10-01T09:20:12.511Z,-0.54
2022-10-01T09:22:42.928Z,-0.67
2022-10-01T09:25:25.037Z,-0.77
2022-10-01T09:28:03.758Z,-0.89
2022-10-01T09:30:33.173Z,-0.91
2022-10-01T09:33:20.751Z,-0.99
2022-10-01T09:36:23.740Z,-1.11
2022-10-01T09:39:10.057Z,-1.22
2022-10-01T09:41:39.447Z,-1.20
2022-10-01T09:44:18.997Z,-1.15
2022-10-01T09:46:48.161Z,-1.08
2022-10-01T09:49:37.605Z,-1.08
2022-10-01T09:52:41.356Z,-1.09
2022-10-01T09:55:19.309Z,-1.08
2022-10-01T09:58:13.880Z,-1.04
2022-10-01T10:00:44.579Z,-1.00
2022-10-01T10:03:29.247Z,-1.07
2022-10-01T10:06:03.255Z,-1.10
2022-10-01T10:08:40.785Z,-1.18
2022-10-01T10:11:11.911Z,-1.26
2022-10-01T10:13:45.188Z,-1.32
2022-10-01T10:16:25.496Z,-1.42
2022-10-01T10:19:01.569Z,-1.41
2022-10-01T10:21:38.006Z,-1.42
2022-10-01T10:24:23.113Z,-1.43
2022-10-01T10:27:01.771Z,-1.52
2022-10-01T10:29:38.216Z,-1.61
2022-10-01T10:32:22.822Z,-1.65
2022-10-01T10:34:57.029Z,-1.65
2022-10-01T10:37:35.188Z,-1.70
2022-10-01T10:40:08.760Z,-1.60
2022-10-01T10:42:39.412Z,-1.62
2022-10-01T10:45:18.137Z,-1.62
2022-10-01T10:47:53.317Z,-1.66
2022-10-01T10:50:37.862Z,-1.75
2022-10-01T10:53:25.198Z,-1.83
2022-10-01T10:56:24.890Z,-1.94
2022-10-01T10:58:54.761Z,-2.02
2022-10-01T11:01:33.908Z,-2.14
2022-10-01T11:04:03.451Z,-2.22
2022-10-01T11:06:32.685Z,-2.32
2022-10-01T11:09:07.856Z,-2.41
2022-10-01T11:11:48.555Z,-2.55
2022-10-01T11:14:23.667Z,-2.67
2022-10-01T11:17:14.013Z,-2.77
2022-10-01T11:19:59.557Z,-2.85
2022-10-01T11:22:47.472Z,-2.94
2022-10-01T11:25:32.133Z,-3.00
2022-10-01T11:28:30.209Z,-3.04
2022-10-01T11:31:10.653Z,-3.09
2022-10-01T11:33:40.173Z,-3.11
2022-10-01T11:36:55.573Z,-3.20
2022-10-01T11:39:28.498Z,-3.21
2022-10-01T11:42:17.496Z,-3.25
2022-10-01T11:45:02.048Z,-3.26
2022-10-01T11:47:38.674Z,-3.25
2022-10-01T11:50:25.973Z,-3.23
2022-10-01T11:53:15.856Z,-3.19
2022-10-01T11:56:26.093Z,-3.17
2022-10-01T11:59:01.406Z,-3.14
2022-10-01T12:02:19.781Z,-3.12
2022-10-01T12:05:15.850Z,-3.12
2022-10-01T12:08:19.445Z,-3.11
2022-10-01T12:11:18.371Z,-3.10
2022-10-01T12:13:57.777Z,-3.07
2022-10-01T12:16:43.524Z,-3.04
2022-10-01T12:19:19.542Z,-3.02
2022-10-01T12:21:57.901Z,-3.00
2022-10-01T12:24:35.452Z,-2.94
2022-10-01T12:27:26.011Z,-2.88
2022-10-01T12:30:04.132Z,-2.80
2022-10-01T12:33:08.254Z,-2.74
2022-10-01T12:35:56.913Z,-2.69
2022-10-01T12:38:57.543Z,-2.66
2022-10-01T12:41:40.416Z,-2.67
2022-10-01T12:44:34.209Z,-2.69
2022-10-01T12:47:11.961Z,-2.70
2022-10-01T12:49:49.309Z,-2.75
2022-10-01T12:52:45.897Z,-2.76
2022-10-01T12:55:20.348Z,-2.76
2022-10-01T12:58:03.016Z,-2.78
2022-10-01T13:00:41.765Z,-2.79
2022-10-01T13:03:13.708Z,-2.83
2022-10-01T13:05:45.334Z,-2.86
2022-10-01T13:08:17.245Z,-2.92
2022-10-01T13:11:08.654Z,-2.96
2022-10-01T13:13:39.175Z,-2.98
2022-10-01T13:16:22.883Z,-2.96
2022-10-01T13:19:23.811Z,-3.00
2022-10-01T13:21:58.754Z,-3.02
2022-10-01T13:24:45.001Z,-3.03
2022-10-01T13:27:19.599Z,-3.04
2022-10-01T13:30:00.596Z,-3.05
2022-10-01T13:32:35.205Z,-3.07
2022-10-01T13:35:25.026Z,-3.08
2022-10-01T13:37:54.450Z,-3.10
2022-10-01T13:40:28.096Z,-3.12
2022-10-01T13:43:24.039Z,-3.10
2022-10-01T13:45:56.989Z,-3.13
2022-10-01T13:48:35.225Z,-3.12
2022-10-01T13:51:09.714Z,-3.11
2022-10-01T13:53:45.468Z,-3.11
2022-10-01T13:56:28.794Z,-3.11
2022-10-01T13:58:59.030Z,-3.07
2022-10-01T14:01:40.668Z,-3.07
2022-10-01T14:04:46.514Z,-3.06
2022-10-01T14:07:22.115Z,-3.04
2022-10-01T14:09:55.512Z,-3.06
2022-10-01T14:12:50.056Z,-3.11
2022-10-01T14:15:41.302Z,-3.08
2022-10-01T14:18:24.088Z,-3.09
2022-10-01T14:20:56.245Z,-3.06
2022-10-01T14:23:46.148Z,-3.11
2022-10-01T14:26:43.946Z,-3.08
2022-10-01T14:29:15.939Z,-3.10
2022-10-01T14:32:04.413Z,-3.11
2022-10-01T14:34:48.294Z,-3.12
2022-10-01T14:37:20.325Z,-3.15
2022-10-01T14:40:02.296Z,-3.16
2022-10-01T14:42:32.369Z,-3.17
2022-10-01T14:45:01.465Z,-3.19
2022-10-01T14:47:36.214Z,-3.14
2022-10-01T14:50:19.742Z,-3.13
2022-10-01T14:52:55.737Z,-3.14
2022-10-01T14:55:25.937Z,-3.10
2022-10-01T14:57:57.055Z,-3.14
2022-10-01T15:00:30.870Z,-3.08
2022-10-01T15:03:18.327Z,-3.07
2022-10-01T15:05:50.055Z,-3.06
2022-10-01T15:08:23.303Z,-3.07
2022-10-01T15:11:02.276Z,-3.17
2022-10-01T15:13:36.093Z,-3.01
2022-10-01T15:16:06.451Z,-3.01
2022-10-01T15:18:37.542Z,-2.98
2022-10-01T15:21:08.128Z,-3.11
2022-10-01T15:23:40.093Z,-3.04
2022-10-01T15:26:13.288Z,-3.04
2022-10-01T15:28:42.431Z,-3.06
2022-10-01T15:31:11.535Z,-3.06
2022-10-01T15:33:42.312Z,-3.11
2022-10-01T15:36:18.431Z,-3.17
2022-10-01T15:38:48.273Z,-3.07
2022-10-01T15:41:33.013Z,-3.14
2022-10-01T15:44:07.107Z,-3.10
2022-10-01T15:46:36.733Z,-3.16
2022-10-01T15:49:19.510Z,-3.11
2022-10-01T15:52:20.596Z,-3.12
2022-10-01T15:54:59.753Z,-3.13
2022-10-01T15:57:34.070Z,-3.19
2022-10-01T16:00:03.366Z,-3.14
2022-10-01T16:02:34.909Z,-3.15
2022-10-01T16:05:07.379Z,-3.17
2022-10-01T16:07:36.887Z,-3.20
2022-10-01T16:10:30.588Z,-3.23
2022-10-01T16:12:59.696Z,-3.19
2022-10-01T16:15:30.700Z,-3.27
2022-10-01T16:18:03.006Z,-3.21
2022-10-01T16:20:37.420Z,-3.21
2022-10-01T16:23:43.509Z,-3.23
2022-10-01T16:26:38.791Z,-3.25
2022-10-01T16:29:17.961Z,-3.27
2022-10-01T16:31:47.313Z,-3.35
2022-10-01T16:34:19.326Z,-3.27
2022-10-01T16:36:48.558Z,-3.30
2022-10-01T16:39:17.650Z,-3.34
2022-10-01T16:42:06.324Z,-3.31
2022-10-01T16:44:40.875Z,-3.32
2022-10-01T16:47:12.258Z,-3.27
2022-10-01T16:49:41.934Z,-3.28
2022-10-01T16:52:14.965Z,-3.26
2022-10-01T16:54:45.145Z,-3.25
2022-10-01T16:57:16.049Z,-3.34
2022-10-01T16:59:44.991Z,-3.27
2022-10-01T17:02:15.836Z,-3.30
2022-10-01T17:04:44.773Z,-3.30
2022-10-01T17:07:13.563Z,-3.28
2022-10-01T17:09:42.553Z,-3.35
2022-10-01T17:12:11.486Z,-3.30
2022-10-01T17:14:40.983Z,-3.30
2022-10-01T17:17:09.753Z,-3.36
2022-10-01T17:19:38.592Z,-3.36
2022-10-01T17:22:07.411Z,-3.38
2022-10-01T17:24:36.233Z,-3.43
2022-10-01T17:27:05.075Z,-3.36
2022-10-01T17:29:34.157Z,-3.36
2022-10-01T17:32:03.089Z,-3.33
2022-10-01T17:34:31.842Z,-3.33
2022-10-01T17:37:00.814Z,-3.34
2022-10-01T17:39:29.723Z,-3.34
2022-10-01T17:41:58.517Z,-3.33
2022-10-01T17:44:27.449Z,-3.35
2022-10-01T17:46:56.257Z,-3.36
2022-10-01T17:49:25.101Z,-3.35
2022-10-01T17:51:54.025Z,-3.40
2022-10-01T17:54:22.930Z,-3.40
2022-10-01T17:56:55.906Z,-3.45
2022-10-01T17:59:24.896Z,-3.45
2022-10-01T18:01:54.457Z,-3.46
2022-10-01T18:04:23.761Z,-3.42
2022-10-01T18:06:59.079Z,-3.40
2022-10-01T18:09:28.489Z,-3.37
2022-10-01T18:11:57.334Z,-3.35
2022-10-01T18:14:26.258Z,-3.36
2022-10-01T18:16:55.602Z,-3.43
2022-10-01T18:19:53.000Z,-3.37
2022-10-01T18:22:14.936Z,-3.38
2022-10-01T18:24:44.039Z,-3.36
2022-10-01T18:27:14.352Z,-3.34
2022-10-01T18:29:43.195Z,-3.34
2022-10-01T18:32:22.327Z,-3.40
2022-10-01T18:34:58.441Z,-3.37
2022-10-01T18:37:47.486Z,-3.43
2022-10-01T18:40:21.419Z,-3.37
2022-10-01T18:43:12.055Z,-3.38
2022-10-01T18:46:22.523Z,-3.38
2022-10-01T18:49:03.261Z,-3.34
2022-10-01T18:51:52.695Z,-3.34
2022-10-01T18:54:24.149Z,-3.36
2022-10-01T18:57:11.529Z,-3.36
2022-10-01T18:59:49.249Z,-3.36
2022-10-01T19:02:51.127Z,-3.37
2022-10-01T19:05:32.130Z,-3.37
2022-10-01T19:08:09.860Z,-3.38
2022-10-01T19:10:43.319Z,-3.36
2022-10-01T19:13:36.877Z,-3.33
2022-10-01T19:16:38.014Z,-3.28
2022-10-01T19:19:28.766Z,-3.25
2022-10-01T19:22:03.632Z,-3.24
2022-10-01T19:25:13.777Z,-3.23
2022-10-01T19:28:00.556Z,-3.18
2022-10-01T19:30:54.404Z,-3.20
2022-10-01T19:33:24.692Z,-3.25
2022-10-01T19:35:58.408Z,-3.24
2022-10-01T19:38:30.401Z,-3.25
2022-10-01T19:41:17.217Z,-3.27
2022-10-01T19:43:56.177Z,-3.25
2022-10-01T19:46:37.104Z,-3.24
2022-10-01T19:49:26.106Z,-3.28
2022-10-01T19:52:11.835Z,-3.29
2022-10-01T19:54:47.773Z,-3.32
2022-10-01T19:57:24.991Z,-3.32
2022-10-01T20:00:10.736Z,-3.33
2022-10-01T20:02:53.135Z,-3.39
2022-10-01T20:05:29.281Z,-3.37
2022-10-01T20:08:15.218Z,-3.37
2022-10-01T20:11:06.985Z,-3.34
2022-10-01T20:13:48.032Z,-3.38
2022-10-01T20:16:51.705Z,-3.34
2022-10-01T20:19:31.742Z,-3.37
2022-10-01T20:22:11.289Z,-3.39
2022-10-01T20:25:24.515Z,-3.40
2022-10-01T20:28:25.531Z,-3.38
2022-10-01T20:31:06.329Z,-3.36
2022-10-01T20:34:05.739Z,-3.36
2022-10-01T20:36:38.812Z,-3.37
2022-10-01T20:39:18.142Z,-3.42
2022-10-01T20:41:50.250Z,-3.36
2022-10-01T20:44:25.412Z,-3.34
2022-10-01T20:47:04.090Z,-3.34
2022-10-01T20:50:08.227Z,-3.35
2022-10-01T20:53:04.385Z,-3.33
2022-10-01T20:55:39.797Z,-3.33
2022-10-01T20:58:52.734Z,-3.35
2022-10-01T21:01:25.046Z,-3.31
2022-10-01T21:04:03.128Z,-3.32
2022-10-01T21:06:51.311Z,-3.34
2022-10-01T21:09:33.774Z,-3.31
2022-10-01T21:12:15.789Z,-3.30
2022-10-01T21:14:55.574Z,-3.31
2022-10-01T21:18:04.043Z,-3.31
2022-10-01T21:20:48.474Z,-3.32
2022-10-01T21:23:33.221Z,-3.32
2022-10-01T21:26:25.166Z,-3.38
2022-10-01T21:29:26.908Z,-3.48
2022-10-01T21:32:35.828Z,-3.34
2022-10-01T21:35:19.243Z,-3.36
2022-10-01T21:38:03.196Z,-3.33
2022-10-01T21:40:48.506Z,-3.32
2022-10-01T21:43:56.660Z,-3.33
2022-10-01T21:46:37.502Z,-3.28
2022-10-01T21:49:43.699Z,-3.27
2022-10-01T21:52:34.195Z,-3.30
2022-10-01T21:55:34.675Z,-3.34
2022-10-01T21:58:09.287Z,-3.33
2022-10-01T22:00:39.614Z,-3.37
2022-10-01T22:03:35.517Z,-3.34
2022-10-01T22:06:30.030Z,-3.36
2022-10-01T22:09:17.581Z,-3.38
2022-10-01T22:11:53.349Z,-3.38
2022-10-01T22:14:23.788Z,-3.37
2022-10-01T22:16:58.523Z,-3.37
2022-10-01T22:19:37.854Z,-3.36
2022-10-01T22:22:18.954Z,-3.35
2022-10-01T22:24:50.673Z,-3.37
2022-10-01T22:27:34.441Z,-3.38
2022-10-01T22:30:08.299Z,-3.38
2022-10-01T22:32:46.063Z,-3.38
2022-10-01T22:35:21.431Z,-3.41
2022-10-01T22:38:19.318Z,-3.38
2022-10-01T22:40:57.097Z,-3.40
2022-10-01T22:43:25.985Z,-3.39
2022-10-01T22:46:06.720Z,-3.37
2022-10-01T22:48:47.581Z,-3.40
2022-10-01T22:51:22.354Z,-3.39
2022-10-01T22:54:09.913Z,-3.41
2022-10-01T22:56:50.619Z,-3.35
2022-10-01T22:59:45.965Z,-3.30
2022-10-01T23:02:40.266Z,-3.26
2022-10-01T23:05:28.072Z,-3.23
2022-10-01T23:08:12.084Z,-3.24
2022-10-01T23:11:07.109Z,-3.24
2022-10-01T23:13:47.194Z,-3.30
2022-10-01T23:16:30.573Z,-3.27
2022-10-01T23:19:14.672Z,-3.28
2022-10-01T23:21:52.416Z,-3.30
2022-10-01T23:24:53.583Z,-3.31
2022-10-01T23:27:53.183Z,-3.27
2022-10-01T23:30:22.774Z,-3.25
2022-10-01T23:33:20.891Z,-3.25
2022-10-01T23:35:49.672Z,-3.21
2022-10-01T23:38:39.532Z,-3.18
2022-10-01T23:41:37.578Z,-3.15
2022-10-01T23:44:21.036Z,-3.13
2022-10-01T23:46:52.804Z,-3.13
2022-10-01T23:49:29.009Z,-3.11
2022-10-01T23:52:17.576Z,-3.07
2022-10-01T23:55:25.825Z,-3.01
2022-10-01T23:58:02.346Z,-3.05
